Ruggles Beach, Ohio
Current Conditions -  °F | °C
As of 4:32 PM on Thursday 18 Dec 2014 (Local Time) from KPCW Reporting Station
Overcast Overcast  
Wind Chill: 24°   Ceiling: 2600
Heat Index: 32°   Visibility: 10mi
Dew Point: 27°   Wind: 9mph
Humidity: 80%   Direction: 250°WSW
Pressure: 30.18"   Gusts: NA
Location:  41.3748°N, 82.5554°W
Report Text: KPCW 182132Z AUTO 25008KT 10SM OVC026 00/M03 A3018 RMK AO2 $
Loading
Personal Weather Stations






























Interactive Weather Map New forecast layout! Learn more

10-Day Weather Forecast

Advertisements
Track Severe Weather on mobile